Tiempo atmosférico en la estación meteorológica de Teruel, Santa Eulalia del Campo, Teruel (1000 m.)



Fecha
DESCASC
Temp. máxima en grados centígrados (hora)
DESCASC
Temp. mínima en grados centígrados (hora)
DESCASC
Temp. media en grados centígrados
DESCASC
Racha de viento máxima en m/sg (hora)
DESCASC
Velocidad máxima media en intervalos de 10 minutos(hora)
DESCASC
Precipitaciones diarias en mm
DESCASC
Precipitaciones de 00:00 a 06:00 en mm
DESCASC
Precipitaciones de 06:00 a 12:00 en mm
DESCASC
Precipitaciones de 12:00 a 18:00 en mm
DESCASC
Precipitaciones de 18:00 a 24:00 en mm
DESCASC

Gráficas

Temp. máximas Temp. mínimas Temp. medias Precipitaciones Rachas de viento máximas Velocidades máximas media en intervalos de 10 minutos

Datos horarios

Fecha y hora oficial Temperatura (ºC) Velocidad del viento (km/h) Dirección del viento Racha (km/h) Dirección de racha Precipitación (mm) Presión (hPa) Tendencia (hPa) Humedad (%)
2021-03-01 23:00:00 5.9 13 Sudoeste 18 Sudoeste 0 -- -- 87
2021-03-01 22:00:00 5.5 12 Sudoeste 17 Sudoeste 0 -- -- 87
2021-03-01 21:00:00 5.5 8 Sur 16 Sur 0 -- -- 85
2021-03-01 20:00:00 6 10 Sudoeste 21 Sudoeste 0 -- -- 82
2021-03-01 19:00:00 6.6 12 Sudoeste 30 Sur 0 -- -- 81
2021-03-01 18:00:00 7.4 18 Sur 31 Sur 0 -- -- 76
2021-03-01 17:00:00 8 18 Sur 32 Sur 0 -- -- 73
2021-03-01 16:00:00 8.5 23 Sur 35 Sur 0 -- -- 70
2021-03-01 15:00:00 8.9 18 Sur 34 Sur 0 -- -- 68
2021-03-01 14:00:00 7.9 21 Sur 38 Sur 0 -- -- 73
2021-03-01 13:00:00 8.8 19 Sur 37 Sur 0 -- -- 69
2021-03-01 12:00:00 8.4 18 Sur 28 Sur 0 -- -- 74
2021-03-01 11:00:00 6.6 8 Sur 13 Sur 0 -- -- 80
2021-03-01 10:00:00 5.7 3 Sur 6 Sur 0 -- -- 80
2021-03-01 09:00:00 4.3 0 Calma 4 Sudoeste 0 -- -- 86
2021-03-01 08:00:00 3.1 0 Calma 5 Sudeste 0 -- -- 90
2021-03-01 07:00:00 3.3 3 Sudeste 17 Sur 0 -- -- 89
2021-03-01 06:00:00 4.2 11 Sudoeste 17 Sudoeste 0 -- -- 84
2021-03-01 05:00:00 4.4 11 Sur 23 Sur 0 -- -- 82
2021-03-01 04:00:00 4.2 14 Sudoeste 22 Sudoeste 0 -- -- 81
2021-03-01 03:00:00 3.2 13 Sur 18 Sur 0 -- -- 86
2021-03-01 02:00:00 3 12 Sur 22 Sur 0 -- -- 86
2021-03-01 01:00:00 2.5 9 Sur 13 Sur 0 -- -- 88
2021-03-01 00:00:00 2.7 10 Sur 19 Sur 0 -- -- 86
2021-02-28 23:00:00 3.9 14 Sur 26 Sur 0 -- -- 81
2021-02-28 22:00:00 4.4 17 Sur 29 Sur 0 -- -- 83
2021-02-28 21:00:00 5.1 15 Sur 33 Sur 0 -- -- 86
2021-02-28 20:00:00 5.8 18 Sur 37 Sur 0 -- -- 85
2021-02-28 19:00:00 6.4 22 Sur 37 Sur 0 -- -- 84
2021-02-28 18:00:00 7.2 22 Sur 36 Sur 0 -- -- 80
2021-02-28 17:00:00 7.4 22 Sur 38 Sur 0 -- -- 79
2021-02-28 16:00:00 8 24 Sur 36 Sur 0 -- -- 75
2021-02-28 15:00:00 9 21 Sur 41 Sudoeste 0 -- -- 68
2021-02-28 14:00:00 10.5 30 Sudoeste 42 Sudoeste 0 -- -- 59
2021-02-28 13:00:00 10.6 28 Sur 41 Sudoeste 0 -- -- 58
2021-02-28 12:00:00 8.6 27 Sudoeste 36 Sur 0 -- -- 66
2021-02-28 11:00:00 7.8 17 Sur 28 Sur 0 -- -- 69
2021-02-28 10:00:00 6.7 16 Sur 26 Sur 0 -- -- 75
2021-02-28 09:00:00 5.4 10 Sur 19 Sudeste 0 -- -- 85
2021-02-28 08:00:00 5.2 10 Sur 18 Sudeste 0 -- -- 86
2021-02-28 07:00:00 5.3 12 Sur 24 Sur 0 -- -- 85
2021-02-28 06:00:00 5.4 12 Sur 20 Sur 0 -- -- 87
2021-02-28 05:00:00 5.1 5 Sur 10 Sur 0 -- -- 89
2021-02-28 04:00:00 4.3 0 Calma 5 Sudeste 0 -- -- 91
2021-02-28 03:00:00 4.8 0 Calma 4 Noroeste 0 -- -- 89
2021-02-28 02:00:00 3.8 0 Calma 6 Sudeste 0 -- -- 91
2021-02-28 01:00:00 2.7 0 Calma 8 Noroeste 0 -- -- 93
2021-02-28 00:00:00 3.8 4 Noroeste 13 Noroeste 0 -- -- 86
2021-02-27 23:00:00 4.7 8 Norte 16 Noroeste 0 -- -- 85
2021-02-27 22:00:00 4.6 10 Norte 17 Norte 0 -- -- 85
2021-02-27 21:00:00 6.1 10 Norte 16 Norte 0 -- -- 83
2021-02-27 20:00:00 7.6 12 Norte 16 Norte 0 -- -- 74
2021-02-27 19:00:00 9.1 12 Noroeste 23 Norte 0 -- -- 63
2021-02-27 18:00:00 13.2 17 Norte 26 Norte 0 -- -- 42
2021-02-27 17:00:00 14.4 15 Norte 24 Norte 0 -- -- 42
2021-02-27 16:00:00 14.9 8 Norte 15 Norte 0 -- -- 49
2021-02-27 15:00:00 14.2 7 Nordeste 15 Nordeste 0 -- -- 59
2021-02-27 14:00:00 11.7 6 Norte 20 Nordeste 0 -- -- 71
2021-02-27 13:00:00 8.5 9 Norte 17 Nordeste 0 -- -- 83
2021-02-27 12:00:00 5.8 9 Norte 16 Nordeste 0 -- -- 96
2021-02-27 11:00:00 4.8 10 Norte 17 Norte 0 -- -- 99
2021-02-27 10:00:00 4.4 9 Norte 21 Norte 0 -- -- 100
2021-02-27 09:00:00 3.8 15 Norte 20 Norte 0 -- -- 100
2021-02-27 08:00:00 2.8 7 Nordeste 14 Nordeste 0 -- -- 100
2021-02-27 07:00:00 2.3 9 Norte 13 Norte 0 -- -- 100
2021-02-27 06:00:00 1.4 4 Noroeste 6 Noroeste 0 -- -- 100
2021-02-27 05:00:00 1.9 4 Noroeste 6 Noroeste 0 -- -- 100
2021-02-27 04:00:00 1.6 0 Calma -- -- 0 -- -- 100
2021-02-27 03:00:00 1.2 0 Calma -- -- 0 -- -- 99
2021-02-27 02:00:00 1.8 0 Calma -- -- 0 -- -- 100
2021-02-27 01:00:00 2.6 0 Calma 5 Norte 0 -- -- 98
2021-02-27 00:00:00 3.5 3 Noroeste 7 Norte 0 -- -- 97
2021-02-26 23:00:00 4.4 3 Nordeste 17 Norte 0 -- -- 94
2021-02-26 22:00:00 6.7 11 Noroeste 20 Norte 0 -- -- 90
2021-02-26 21:00:00 8 15 Norte 20 Norte 0 -- -- 84
2021-02-26 20:00:00 9.1 13 Norte 17 Norte 0 -- -- 78
2021-02-26 19:00:00 11.4 12 Norte 20 Norte 0 -- -- 66
2021-02-26 18:00:00 15.6 2 Sudoeste 14 Norte 0 -- -- 34
2021-02-26 17:00:00 17.3 7 Sur 15 Sudoeste 0 -- -- 23
2021-02-26 16:00:00 17 8 Sur 21 Sur 0 -- -- 28
2021-02-26 15:00:00 16.6 8 Sudeste 17 Sudeste 0 -- -- 29
2021-02-26 14:00:00 15.3 8 Sudeste 17 Sudeste 0 -- -- 40
2021-02-26 13:00:00 13.8 4 Sur 9 Sur 0 -- -- 54
2021-02-26 12:00:00 8.1 4 Norte 8 Norte 0 -- -- 96
2021-02-26 11:00:00 4.5 2 Nordeste 5 Sur 0 -- -- 99
2021-02-26 10:00:00 3.1 0 Calma 5 Sudoeste 0 -- -- 100
2021-02-26 09:00:00 2.1 0 Calma 6 Sur 0 -- -- 100
2021-02-26 08:00:00 2 3 Sudoeste 10 Sudoeste 0 -- -- 100
2021-02-26 07:00:00 2.5 6 Sudoeste 12 Sudoeste 0 -- -- 100
2021-02-26 06:00:00 3 6 Sudoeste 13 Sudoeste 0 -- -- 100
2021-02-26 05:00:00 3.2 7 Sudoeste 13 Sur 0 -- -- 99
2021-02-26 04:00:00 3.1 10 Sudoeste 14 Sudoeste 0 -- -- 97
2021-02-26 03:00:00 3 7 Sudoeste 10 Sudoeste 0 -- -- 99
2021-02-26 02:00:00 3 7 Sur 13 Sur 0 -- -- 97
2021-02-26 01:00:00 3.4 8 Sur 12 Sur 0 -- -- 96
2021-02-26 00:00:00 5 8 Sudoeste 14 Sudoeste 0 -- -- 93
2021-02-25 23:00:00 6.1 9 Sudoeste 15 Sudoeste 0 -- -- 89
2021-02-25 22:00:00 5.7 5 Sudoeste 8 Sudoeste 0 -- -- 90
2021-02-25 21:00:00 6.5 0 Calma 13 Sudoeste 0 -- -- 82
2021-02-25 20:00:00 8 5 Sur 20 Sur 0 -- -- 75
2021-02-25 19:00:00 10.2 12 Sur 24 Sur 0 -- -- 69
2021-02-25 18:00:00 12.3 19 Sur 31 Sur 0 -- -- 62
2021-02-25 17:00:00 13.6 19 Sur 32 Sudeste 0 -- -- 55
2021-02-25 16:00:00 15 18 Sur 32 Sur 0 -- -- 53
2021-02-25 15:00:00 14.8 22 Sur 33 Sur 0 -- -- 53
2021-02-25 14:00:00 13.7 23 Sur 36 Sudeste 0 -- -- 56
2021-02-25 13:00:00 11.9 26 Sur 42 Sur 0 -- -- 64
2021-02-25 12:00:00 10.8 19 Sur 31 Sur 0 -- -- 66
2021-02-25 11:00:00 8.2 14 Sur 23 Sur 0 -- -- 74
2021-02-25 10:00:00 6.1 14 Sur 21 Sudoeste 0 -- -- 84
2021-02-25 09:00:00 3.4 13 Sur 19 Sur 0 -- -- 93
2021-02-25 08:00:00 0.9 8 Sudoeste 14 Sudoeste 0 -- -- 98
2021-02-25 07:00:00 1.1 4 Sur 9 Sur 0 -- -- 97
2021-02-25 06:00:00 2.3 6 Sudoeste 14 Sudoeste 0 -- -- 94
2021-02-25 05:00:00 4.2 8 Sudoeste 15 Sudoeste 0 -- -- 90
2021-02-25 04:00:00 4.3 8 Sudoeste 14 Sudoeste 0 -- -- 88
2021-02-25 03:00:00 2.2 5 Sur 14 Sudoeste 0 -- -- 93
2021-02-25 02:00:00 2.6 4 Sudoeste 20 Sudoeste 0 -- -- 93
2021-02-25 01:00:00 3.4 8 Sudoeste 18 Sudoeste 0 -- -- 94
2021-02-25 00:00:00 3.6 9 Sur 17 Sur 0 -- -- 92
2021-02-24 23:00:00 3 6 Sur 16 Sur 0 -- -- 91
2021-02-24 22:00:00 4.7 8 Sur 14 Sur 0 -- -- 85
2021-02-24 21:00:00 6.3 7 Sur 22 Sudoeste 0 -- -- 80
2021-02-24 20:00:00 7 8 Sudoeste 16 Sudoeste 0 -- -- 76
2021-02-24 19:00:00 9.7 9 Sur 23 Sur 0 -- -- 70
2021-02-24 18:00:00 12.2 18 Sur 32 Sur 0 -- -- 62
2021-02-24 17:00:00 13.6 22 Sur 31 Sur 0 -- -- 57
2021-02-24 16:00:00 14.8 17 Sur 28 Sur 0 -- -- 56
2021-02-24 15:00:00 14.4 21 Sur 31 Sur 0 -- -- 56
2021-02-24 14:00:00 14.4 17 Sur 34 Sudeste 0 -- -- 58
2021-02-24 13:00:00 13.3 18 Sur 31 Sudeste 0 -- -- 63
2021-02-24 12:00:00 11.2 17 Sur 29 Sur 0 -- -- 71
2021-02-24 11:00:00 9.2 14 Sur 25 Sur 0 -- -- 77
2021-02-24 10:00:00 6.3 12 Sur 20 Sur 0 -- -- 88
2021-02-24 09:00:00 2.9 9 Sur 16 Sudoeste 0 -- -- 95
2021-02-24 08:00:00 1.3 6 Sudoeste 13 Sudoeste 0 -- -- 97
2021-02-24 07:00:00 1.5 8 Sudoeste 10 Sudoeste 0 -- -- 96
2021-02-24 06:00:00 1.8 5 Sur 9 Sudoeste 0 -- -- 96
2021-02-24 05:00:00 2 4 Sudoeste 12 Sur 0 -- -- 97
2021-02-24 04:00:00 2.8 7 Sur 19 Sur 0 -- -- 95
2021-02-24 03:00:00 3.4 8 Sur 12 Sudoeste 0 -- -- 94
2021-02-24 02:00:00 3.1 3 Sudoeste 10 Sur 0 -- -- 95
2021-02-24 01:00:00 3.9 9 Sur 14 Sudoeste 0 -- -- 90
2021-02-24 00:00:00 3.9 11 Sudoeste 16 Sudoeste 0 -- -- 93
2021-02-23 23:00:00 4.4 11 Sudoeste 19 Sur 0 -- -- 89
2021-02-23 22:00:00 4.3 10 Sudoeste 14 Sudoeste 0 -- -- 85
2021-02-23 21:00:00 5.3 4 Sur 12 Sur 0 -- -- 82
2021-02-23 20:00:00 6.4 6 Sudoeste 15 Sur 0 -- -- 78
2021-02-23 19:00:00 9.2 7 Sur 21 Sur 0 -- -- 65
2021-02-23 18:00:00 12.1 13 Sur 26 Sur 0 -- -- 53
2021-02-23 17:00:00 13.1 14 Sur 26 Sur 0 -- -- 49
2021-02-23 16:00:00 13.2 13 Sur 22 Sur 0 -- -- 45
2021-02-23 15:00:00 13.1 9 Sur 26 Sur 0 -- -- 46
2021-02-23 14:00:00 11.5 11 Sudoeste 22 Sur 0 -- -- 56
2021-02-23 13:00:00 10.1 10 Sur 21 Sur 0 -- -- 59
2021-02-23 12:00:00 8.1 8 Sur 17 Sur 0 -- -- 70
2021-02-23 11:00:00 5.6 9 Sur 16 Sur 0 -- -- 78
2021-02-23 10:00:00 4.2 10 Sur 15 Sur 0 -- -- 85
2021-02-23 09:00:00 2 2 Sur 6 Oeste 0 -- -- 91
2021-02-23 08:00:00 1.3 2 Oeste 7 Sur 0 -- -- 92
2021-02-23 07:00:00 2.7 4 Sudeste 10 Sudeste 0 -- -- 93
2021-02-23 06:00:00 2.6 0 Calma 4 Este 0 -- -- 95
2021-02-23 05:00:00 2.7 4 Este 10 Nordeste 0 -- -- 94
2021-02-23 04:00:00 3 5 Nordeste 10 Nordeste 0 -- -- 93
2021-02-23 03:00:00 3.1 3 Este 12 Norte 0 -- -- 95
2021-02-23 02:00:00 3.1 4 Norte 11 Norte 0 -- -- 95
2021-02-23 01:00:00 3.2 6 Norte 11 Norte 0 -- -- 97
2021-02-23 00:00:00 3.4 7 Norte 15 Norte 0 -- -- 94
2021-02-22 23:00:00 2.9 10 Noroeste 15 Norte 0 -- -- 94
2021-02-22 22:00:00 4 9 Norte 15 Norte 0 -- -- 96
2021-02-22 21:00:00 4.2 10 Norte 15 Norte 0 -- -- 95
2021-02-22 20:00:00 4.3 12 Nordeste 20 Nordeste 0 -- -- 92
2021-02-22 19:00:00 4.6 13 Norte 21 Norte 0 -- -- 91
2021-02-22 18:00:00 5.3 12 Nordeste 24 Nordeste 0 -- -- 83
2021-02-22 17:00:00 5.3 14 Nordeste 26 Norte 0 -- -- 87
2021-02-22 16:00:00 5.3 18 Norte 27 Nordeste 0 -- -- 87
2021-02-22 15:00:00 5.5 15 Nordeste 29 Nordeste 0 -- -- 82
2021-02-22 14:00:00 5.9 19 Norte 28 Nordeste 0 -- -- 78
2021-02-22 13:00:00 5.9 18 Nordeste 28 Norte 0 -- -- 79
2021-02-22 12:00:00 5.6 16 Nordeste 25 Norte 0 -- -- 80
2021-02-22 11:00:00 3.9 15 Nordeste 23 Norte 0.2 -- -- 93
2021-02-22 10:00:00 4.5 11 Nordeste 15 Nordeste 0 -- -- 89
2021-02-22 09:00:00 4 5 Nordeste 12 Norte 0 -- -- 93
2021-02-22 08:00:00 3.2 3 Norte 6 Norte 0 -- -- 97
2021-02-22 07:00:00 2.9 3 Norte 12 Norte 0 -- -- 97
2021-02-22 06:00:00 2.5 5 Sur 14 Sudoeste 0 -- -- 96
2021-02-22 05:00:00 2.7 5 Sudoeste 15 Sur 0 -- -- 95
2021-02-22 04:00:00 4.1 7 Sur 23 Sudoeste 0.2 -- -- 95
2021-02-22 03:00:00 4.8 20 Sur 35 Sur 0 -- -- 93
2021-02-22 02:00:00 6.3 8 Sur 23 Sur 0.4 -- -- 91
2021-02-22 01:00:00 7 6 Sur 14 Sudeste 0 -- -- 87
2021-02-22 00:00:00 7 3 Sur 10 Sur 0.2 -- -- 94
2021-02-21 23:00:00 7.4 8 Sudoeste 19 Sur 0 -- -- 90
2021-02-21 22:00:00 7.8 10 Sur 17 Sur 0 -- -- 86
2021-02-21 21:00:00 8 8 Sudoeste 26 Sur 0 -- -- 82
2021-02-21 20:00:00 8.5 17 Sur 28 Sudoeste 0 -- -- 76
2021-02-21 19:00:00 8.7 13 Sur 34 Sur 0 -- -- 75
2021-02-21 18:00:00 9.2 20 Sur 38 Sudoeste 0 -- -- 75
2021-02-21 17:00:00 9.5 21 Sudoeste 44 Sur 0 -- -- 74
2021-02-21 16:00:00 10.2 24 Sur 43 Sur 0 -- -- 68
2021-02-21 15:00:00 10.5 22 Sudoeste 40 Sur 0 -- -- 69
2021-02-21 14:00:00 10.3 23 Sur 37 Sur 0 -- -- 70
2021-02-21 13:00:00 9.7 25 Sur 45 Sur 0 -- -- 72
2021-02-21 12:00:00 8.8 29 Sur 45 Sur 0 -- -- 72
2021-02-21 11:00:00 7.7 26 Sur 42 Sudoeste 0 -- -- 80
2021-02-21 10:00:00 7 31 Sur 49 Sudoeste 0 -- -- 82
2021-02-21 09:00:00 5 13 Sudoeste 23 Sudoeste 0 -- -- 81
2021-02-21 08:00:00 4.5 8 Sudoeste 14 Sudoeste 0 -- -- 82
2021-02-21 07:00:00 4.3 10 Sudoeste 20 Sudoeste 0 -- -- 90
2021-02-21 06:00:00 4.5 12 Sudoeste 22 Sudoeste 0 -- -- 91
2021-02-21 05:00:00 4.5 15 Sudoeste 27 Sur 0 -- -- 92
2021-02-21 04:00:00 4.9 19 Sur 31 Sur 0 -- -- 90
2021-02-21 03:00:00 4.9 15 Sur 26 Sudoeste 0 -- -- 89
2021-02-21 02:00:00 5.2 18 Sur 29 Sur 0 -- -- 88
2021-02-21 01:00:00 5.4 17 Sur 26 Sur 0 -- -- 87
2021-02-21 00:00:00 5.6 17 Sur 25 Sur 0 -- -- 90
2021-02-20 23:00:00 6.1 15 Sur 24 Sur 0 -- -- 87
2021-02-20 22:00:00 6.6 9 Sur 16 Sur 0 -- -- 84
2021-02-20 21:00:00 6.6 5 Sur 15 Sur 0 -- -- 82
2021-02-20 20:00:00 7.8 8 Sur 25 Sur 0 -- -- 75
2021-02-20 19:00:00 10.4 14 Sur 35 Sur 0 -- -- 51
2021-02-20 18:00:00 13.3 26 Sur 43 Sur 0 -- -- 39
2021-02-20 17:00:00 15 28 Sur 52 Sur 0 -- -- 34
2021-02-20 16:00:00 16.5 29 Sur 42 Sur 0 -- -- 32
2021-02-20 15:00:00 17.1 30 Sur 45 Sur 0 -- -- 29
2021-02-20 14:00:00 17.4 31 Sur 47 Sur 0 -- -- 28
2021-02-20 13:00:00 16.3 27 Sur 49 Sur 0 -- -- 29
2021-02-20 12:00:00 15.4 28 Sur 40 Sur 0 -- -- 29
2021-02-20 11:00:00 12.4 24 Sur 34 Sur 0 -- -- 43
2021-02-20 10:00:00 8.6 13 Sur 24 Sur 0 -- -- 57
2021-02-20 09:00:00 3.4 8 Sudoeste 14 Sur 0 -- -- 80
2021-02-20 08:00:00 1.6 6 Sur 18 Sur 0 -- -- 84
2021-02-20 07:00:00 2.8 12 Sur 19 Sur 0 -- -- 80
2021-02-20 06:00:00 1 3 Sur 12 Sur 0 -- -- 88
2021-02-20 05:00:00 1.6 4 Sur 14 Sur 0 -- -- 86
2021-02-20 04:00:00 2.1 6 Sudoeste 17 Sur 0 -- -- 83
2021-02-20 03:00:00 3.5 8 Sur 17 Sudoeste 0 -- -- 79
2021-02-20 02:00:00 3.4 7 Sudoeste 10 Sudoeste 0 -- -- 77
2021-02-20 01:00:00 3.4 5 Sur 13 Sudoeste 0 -- -- 75
2021-02-20 00:00:00 2.8 7 Sudoeste 15 Sur 0 -- -- 72
2021-02-19 23:00:00 4.1 7 Sur 12 Sudoeste 0 -- -- 62
2021-02-19 22:00:00 4.8 8 Sur 11 Sur 0 -- -- 59
2021-02-19 21:00:00 5.4 0 Calma 8 Oeste 0 -- -- 57
2021-02-19 20:00:00 8.5 4 Sudoeste 13 Oeste 0 -- -- 44
2021-02-19 19:00:00 12.1 8 Sudoeste 22 Oeste 0 -- -- 33
2021-02-19 18:00:00 15.3 13 Oeste 30 Sudoeste 0 -- -- 26
2021-02-19 17:00:00 16.9 17 Oeste 34 Oeste 0 -- -- 24
2021-02-19 16:00:00 17.3 17 Sudoeste 31 Sudoeste 0 -- -- 23
2021-02-19 15:00:00 17.4 18 Sudoeste 34 Oeste 0 -- -- 25
2021-02-19 14:00:00 17 17 Sudoeste 35 Sudoeste 0 -- -- 27
2021-02-19 13:00:00 16.1 20 Sudoeste 34 Sudoeste 0 -- -- 29
2021-02-19 12:00:00 13 18 Sur 29 Sur 0 -- -- 44
2021-02-19 11:00:00 9.8 13 Sur 20 Sur 0 -- -- 54
2021-02-19 10:00:00 5.5 8 Sur 15 Sur 0 -- -- 70
2021-02-19 09:00:00 1.9 10 Sur 15 Sudeste 0 -- -- 78
2021-02-19 08:00:00 0.6 9 Sur 14 Sur 0 -- -- 81
2021-02-19 07:00:00 -0.7 7 Sur 13 Sur 0 -- -- 86
2021-02-19 06:00:00 -1.1 8 Sur 10 Sur 0 -- -- 87
2021-02-19 05:00:00 -1.4 0 Calma 8 Sur 0 -- -- 88
2021-02-19 04:00:00 0.5 8 Sudoeste 10 Sur 0 -- -- 81
2021-02-19 03:00:00 1.1 4 Sur 10 Sudoeste 0 -- -- 79
2021-02-19 02:00:00 0.6 5 Sur 9 Sudeste 0 -- -- 82
2021-02-19 01:00:00 0.5 0 Calma 7 Sur 0 -- -- 84
2021-02-19 00:00:00 2.1 5 Sur 8 Sur 0 -- -- 73
2021-02-18 23:00:00 3.2 6 Oeste 9 Oeste 0 -- -- 70
2021-02-18 22:00:00 5.5 5 Noroeste 15 Noroeste 0 -- -- 61
2021-02-18 21:00:00 5.1 10 Oeste 14 Oeste 0 -- -- 64
2021-02-18 20:00:00 8 4 Oeste 17 Noroeste 0 -- -- 50
2021-02-18 19:00:00 10.6 7 Oeste 18 Noroeste 0 -- -- 41
2021-02-18 18:00:00 14.4 9 Oeste 28 Oeste 0 -- -- 33
2021-02-18 17:00:00 16.8 11 Oeste 28 Noroeste 0 -- -- 26
2021-02-18 16:00:00 16.7 18 Noroeste 36 Noroeste 0 -- -- 25
2021-02-18 15:00:00 16.2 28 Noroeste 39 Noroeste 0 -- -- 23
2021-02-18 14:00:00 17.7 14 Oeste 31 Sur 0 -- -- 24
2021-02-18 13:00:00 16.5 8 Sudoeste 22 Sur 0 -- -- 33
2021-02-18 12:00:00 14.4 13 Sur 20 Sur 0 -- -- 37
2021-02-18 11:00:00 10.9 9 Sur 13 Sur 0 -- -- 55
2021-02-18 10:00:00 5.2 9 Sur 13 Sur 0 -- -- 70
2021-02-18 09:00:00 2.3 10 Sur 16 Sur 0 -- -- 78
2021-02-18 08:00:00 1.8 11 Sur 16 Sur 0 -- -- 74
2021-02-18 07:00:00 1.1 10 Sudoeste 13 Sudoeste 0 -- -- 79
2021-02-18 06:00:00 0.5 4 Sur 9 Sudoeste 0 -- -- 81
2021-02-18 05:00:00 2.5 7 Sur 15 Sur 0 -- -- 74
2021-02-18 04:00:00 2.3 10 Sur 14 Sur 0 -- -- 77
2021-02-18 03:00:00 1.7 0 Calma 12 Sur 0 -- -- 77
2021-02-18 02:00:00 2.9 5 Sur 13 Sur 0 -- -- 71
2021-02-18 01:00:00 3.9 5 Sur 11 Sur 0 -- -- 67
2021-02-18 00:00:00 6.1 4 Sur 17 Sudoeste 0 -- -- 58
2021-02-17 23:00:00 10.5 14 Sudoeste 19 Sudoeste 0 -- -- 41
2021-02-17 22:00:00 6 2 Sur 14 Oeste 0 -- -- 57
2021-02-17 21:00:00 8.9 10 Oeste 17 Sudoeste 0 -- -- 48
2021-02-17 20:00:00 8 0 Calma 9 Oeste 0 -- -- 56
2021-02-17 19:00:00 11.2 5 Oeste 17 Sudoeste 0 -- -- 45
2021-02-17 18:00:00 15.9 11 Oeste 28 Sudoeste 0 -- -- 34
2021-02-17 17:00:00 18 13 Oeste 30 Oeste 0 -- -- 29
2021-02-17 16:00:00 18.3 15 Oeste 33 Oeste 0 -- -- 27
2021-02-17 15:00:00 17.6 17 Oeste 36 Sudoeste 0 -- -- 28
2021-02-17 14:00:00 17.1 13 Sudoeste 23 Sur 0 -- -- 37
2021-02-17 13:00:00 13.5 12 Sur 19 Sur 0 -- -- 52
2021-02-17 12:00:00 10.6 9 Sudoeste 14 Sudoeste 0 -- -- 62
2021-02-17 11:00:00 8.9 5 Sur 10 Sur 0 -- -- 70
2021-02-17 10:00:00 5.5 7 Sur 10 Sur 0 -- -- 79
2021-02-17 09:00:00 3 0 Calma -- -- 0 -- -- 87
2021-02-17 08:00:00 1.2 0 Calma -- -- 0 -- -- 92
2021-02-17 07:00:00 1.8 0 Calma -- -- 0 -- -- 89
2021-02-17 06:00:00 1.3 0 Calma 8 Noroeste 0 -- -- 90
2021-02-17 05:00:00 1.7 0 Calma 3 Noroeste 0 -- -- 89
2021-02-17 04:00:00 2.5 0 Calma 10 Sur 0 -- -- 86
2021-02-17 03:00:00 4.8 8 Sur 11 Sudoeste 0 -- -- 75
2021-02-17 02:00:00 6.1 8 Sur 15 Sur 0 -- -- 67
2021-02-17 01:00:00 5.8 0 Calma 6 Sur 0 -- -- 70
2021-02-17 00:00:00 5.8 0 Calma 10 Sudoeste 0 -- -- 68
2021-02-16 23:00:00 6.7 0 Calma 8 Oeste 0 -- -- 62
2021-02-16 22:00:00 8.1 3 Sudoeste 15 Oeste 0 -- -- 55
2021-02-16 21:00:00 9.6 10 Oeste 22 Oeste 0 -- -- 49
2021-02-16 20:00:00 11 6 Oeste 14 Oeste 0 -- -- 41
2021-02-16 19:00:00 13.4 8 Oeste 20 Oeste 0 -- -- 36
2021-02-16 18:00:00 15.8 6 Noroeste 27 Oeste 0 -- -- 32
2021-02-16 17:00:00 18.3 15 Noroeste 46 Noroeste 0 -- -- 28
2021-02-16 16:00:00 18.9 22 Noroeste 42 Noroeste 0 -- -- 25
2021-02-16 15:00:00 20.1 23 Oeste 45 Oeste 0 -- -- 23
2021-02-16 14:00:00 16 10 Sur 19 Sur 0 -- -- 47
2021-02-16 13:00:00 10.2 13 Sur 18 Sur 0 -- -- 69
2021-02-16 12:00:00 6.4 10 Sur 17 Sur 0 -- -- 89
2021-02-16 11:00:00 2.1 4 Oeste 20 Sur 0 -- -- 99
2021-02-16 10:00:00 1.4 14 Sur 22 Sur 0 -- -- 100
2021-02-16 09:00:00 0.4 6 Sur 17 Sudoeste 0 -- -- 99
2021-02-16 08:00:00 0.4 10 Sudoeste 14 Sudoeste 0 -- -- 98
2021-02-16 07:00:00 -0.8 5 Sur 10 Sudoeste 0 -- -- 99
2021-02-16 06:00:00 -1.5 0 Calma 12 Sur 0 -- -- 97
2021-02-16 05:00:00 -0.7 6 Sudoeste 8 Sudoeste 0 -- -- 97
2021-02-16 04:00:00 -0.4 2 Este 12 Sudoeste 0 -- -- 94
2021-02-16 03:00:00 0.6 6 Sudoeste 10 Sudoeste 0 -- -- 96
2021-02-16 02:00:00 0.6 5 Sur 11 Sur 0 -- -- 94
2021-02-16 01:00:00 1.5 7 Sur 13 Sur 0 -- -- 93
2021-02-16 00:00:00 1.6 6 Sur 17 Sur 0 -- -- 95
2021-02-15 23:00:00 3.2 13 Sur 18 Sur 0 -- -- 92
2021-02-15 22:00:00 3.5 9 Sur 19 Sur 0 -- -- 93
2021-02-15 21:00:00 5.1 13 Sur 21 Sur 0 -- -- 88
2021-02-15 20:00:00 6.3 15 Sur 26 Sur 0 -- -- 83
2021-02-15 19:00:00 8 21 Sur 30 Sur 0 -- -- 74
2021-02-15 18:00:00 10.3 19 Sur 33 Sur 0 -- -- 66
2021-02-15 17:00:00 12.3 22 Sur 35 Sur 0 -- -- 59
2021-02-15 16:00:00 13.1 19 Sur 33 Sur 0 -- -- 53
2021-02-15 15:00:00 13.1 18 Sur 30 Sur 0 -- -- 55
2021-02-15 14:00:00 12.2 16 Sur 27 Sur 0 -- -- 59
2021-02-15 13:00:00 11 14 Sur 24 Sur 0 -- -- 62
2021-02-15 12:00:00 9.3 14 Sur 25 Sur 0 -- -- 69
2021-02-15 11:00:00 8.1 13 Sur 24 Sur 0 -- -- 75
2021-02-15 10:00:00 6.7 17 Sur 24 Sur 0 -- -- 83
2021-02-15 09:00:00 3.3 11 Sudoeste 16 Sudoeste 0 -- -- 93
2021-02-15 08:00:00 2.5 9 Sur 14 Sur 0 -- -- 95
2021-02-15 07:00:00 3.1 9 Sur 17 Sur 0 -- -- 96
2021-02-15 06:00:00 2.7 11 Sur 18 Sudoeste 0 -- -- 97
2021-02-15 05:00:00 3.2 12 Sur 17 Sur 0 -- -- 98
2021-02-15 04:00:00 3.3 9 Sur 21 Sur 0 -- -- 95
2021-02-15 03:00:00 3.6 9 Sur 21 Sur 0 -- -- 95
2021-02-15 02:00:00 5.1 15 Sur 26 Sur 0 -- -- 90
2021-02-15 01:00:00 5.4 13 Sudoeste 19 Sudoeste 0 -- -- 92
2021-02-15 00:00:00 4 10 Sudoeste 20 Sur 0 -- -- 91
2021-02-14 23:00:00 4.7 14 Sur 21 Sur 0 -- -- 91
2021-02-14 22:00:00 5.3 15 Sur 26 Sur 0 -- -- 95
2021-02-14 21:00:00 5.5 16 Sur 28 Sur 0 -- -- 94
2021-02-14 20:00:00 6.2 18 Sur 32 Sur 0 -- -- 90
2021-02-14 19:00:00 7.8 18 Sur 33 Sur 0 -- -- 78
2021-02-14 18:00:00 10.5 21 Sur 36 Sur 0 -- -- 65
2021-02-14 17:00:00 13 19 Sur 31 Sur 0 -- -- 48
2021-02-14 16:00:00 13.7 19 Sur 32 Sur 0 -- -- 46
2021-02-14 15:00:00 13.7 17 Sur 31 Sur 0 -- -- 48
2021-02-14 14:00:00 13.3 15 Sur 27 Sudeste 0 -- -- 48
2021-02-14 13:00:00 11.7 12 Sur 19 Sur 0 -- -- 58
2021-02-14 12:00:00 9.8 13 Sur 21 Sur 0 -- -- 71
2021-02-14 11:00:00 7.3 10 Sur 14 Sur 0 -- -- 79
2021-02-14 10:00:00 2.9 6 Sur 12 Sur 0 -- -- 90
2021-02-14 09:00:00 0.2 6 Sur 10 Sur 0 -- -- 96
2021-02-14 08:00:00 -1.3 0 Calma 13 Sudoeste 0 -- -- 97
2021-02-14 07:00:00 0.5 9 Sudoeste 12 Sudoeste 0 -- -- 96
2021-02-14 06:00:00 -0.5 7 Sur 11 Sudoeste 0 -- -- 98
2021-02-14 05:00:00 -1.7 4 Sur 6 Sur 0 -- -- 98
2021-02-14 04:00:00 -0.8 0 Calma -- -- 0 -- -- 97
2021-02-14 03:00:00 0.5 0 Calma 12 Sudoeste 0 -- -- 95
2021-02-14 02:00:00 0.4 6 Sur 10 Sudeste 0 -- -- 95
2021-02-14 01:00:00 1.6 4 Noroeste 6 Noroeste 0 -- -- 97
2021-02-14 00:00:00 2 4 Sudoeste 8 Oeste 0 -- -- 97
2021-02-13 23:00:00 2.6 2 Noroeste 13 Nordeste 0 -- -- 93
2021-02-13 22:00:00 4.3 4 Nordeste 11 Nordeste 0 -- -- 88
2021-02-13 21:00:00 5 5 Norte 11 Norte 0 -- -- 83
2021-02-13 20:00:00 5.9 4 Norte 15 Norte 0 -- -- 78
2021-02-13 19:00:00 7.4 8 Norte 18 Norte 0 -- -- 70
2021-02-13 18:00:00 9.8 14 Norte 30 Norte 0 -- -- 55
2021-02-13 17:00:00 11.5 19 Norte 31 Norte 0 -- -- 48
2021-02-13 16:00:00 11 20 Norte 35 Norte 0 -- -- 48
2021-02-13 15:00:00 10.6 21 Norte 31 Norte 0 -- -- 56
2021-02-13 14:00:00 11 10 Nordeste 15 Norte 0 -- -- 68
2021-02-13 13:00:00 10.4 6 Nordeste 12 Norte 0 -- -- 69
2021-02-13 08:00:00 -- -- -- -- -- -- -- -- --
2021-02-13 07:00:00 2 3 Sudeste 19 Norte 0 -- -- 93
2021-02-13 06:00:00 2.7 12 Norte 33 Norte 0 -- -- 92
2021-02-13 05:00:00 3.2 20 Norte 27 Norte 0 -- -- 92
2021-02-13 04:00:00 2.8 14 Norte 20 Norte 0 -- -- 93
2021-02-13 03:00:00 2.4 10 Nordeste 17 Norte 0 -- -- 94
2021-02-13 02:00:00 3.2 15 Norte 21 Norte 0 -- -- 94
2021-02-13 01:00:00 3.6 12 Norte 23 Norte 0 -- -- 93
2021-02-13 00:00:00 4 9 Nordeste 19 Nordeste 0 -- -- 92
2021-02-12 23:00:00 6.7 9 Norte 33 Norte 0 -- -- 81
2021-02-12 22:00:00 7.1 26 Noroeste 33 Noroeste 0 -- -- 82
2021-02-12 21:00:00 8.1 20 Noroeste 40 Norte 0 -- -- 78
2021-02-12 20:00:00 8.7 24 Norte 44 Norte 0 -- -- 74
2021-02-12 19:00:00 8.7 32 Norte 55 Noroeste 0 -- -- 73
2021-02-12 18:00:00 9.4 39 Noroeste 57 Noroeste 0 -- -- 69
2021-02-12 17:00:00 9.6 36 Noroeste 55 Noroeste 0 -- -- 70
2021-02-12 16:00:00 10 40 Noroeste 58 Noroeste 0.2 -- -- 67
2021-02-12 15:00:00 10.4 30 Noroeste 50 Norte 0 -- -- 67
2021-02-12 14:00:00 11.6 31 Norte 45 Norte 0 -- -- 54
2021-02-12 13:00:00 11.4 32 Noroeste 47 Noroeste 0 -- -- 61
2021-02-12 12:00:00 9.4 6 Nordeste 15 Este 0 -- -- 80
2021-02-12 11:00:00 6.2 10 Norte 51 Norte 1 -- -- 87
2021-02-12 10:00:00 9.3 5 Noroeste 12 Noroeste 0 -- -- 82
2021-02-12 09:00:00 8.4 0 Calma 9 Sur 0 -- -- 82
2021-02-12 08:00:00 8.2 3 Sur 11 Sudoeste 0 -- -- 84
2021-02-12 07:00:00 9.6 9 Sudoeste 15 Sudoeste 0 -- -- 79
2021-02-12 06:00:00 9.3 8 Sudoeste 22 Sur 0 -- -- 80
2021-02-12 05:00:00 8.1 11 Sur 19 Sur 0 -- -- 89
2021-02-12 04:00:00 7.2 8 Sur 13 Sudoeste 0 -- -- 90
2021-02-12 03:00:00 7.3 8 Sudoeste 18 Sur 0 -- -- 89
2021-02-12 02:00:00 7.5 7 Sur 14 Sudoeste 0 -- -- 88
2021-02-12 01:00:00 7.8 8 Sudoeste 14 Sudoeste 0 -- -- 86
2021-02-12 00:00:00 7.1 0 Calma 6 Sur 0 -- -- 89
2021-02-11 23:00:00 7.6 7 Sur 12 Sur 0 -- -- 86
2021-02-11 22:00:00 7.8 8 Sudoeste 17 Sur 0 -- -- 84
2021-02-11 21:00:00 9 5 Oeste 6 Oeste 0 -- -- 80
2021-02-11 20:00:00 8.9 5 Noroeste 9 Oeste 0 -- -- 78
2021-02-11 19:00:00 10.3 5 Noroeste 21 Oeste 0 -- -- 71
2021-02-11 18:00:00 11.5 5 Noroeste 29 Noroeste 0 -- -- 68
2021-02-11 17:00:00 12.3 12 Noroeste 16 Noroeste 0 -- -- 65
2021-02-11 16:00:00 13.3 10 Norte 24 Noroeste 0 -- -- 62
2021-02-11 15:00:00 14 18 Noroeste 31 Noroeste 0 -- -- 57
2021-02-11 14:00:00 15.4 20 Norte 28 Noroeste 0 -- -- 54
2021-02-11 13:00:00 14.6 12 Nordeste 31 Noroeste 0 -- -- 59
2021-02-11 12:00:00 12.6 6 Sudeste 10 Sur 0 -- -- 65
2021-02-11 11:00:00 9.3 5 Sur 10 Sur 0 -- -- 73
2021-02-11 10:00:00 4.4 4 Sudoeste 11 Sur 0 -- -- 83
2021-02-11 09:00:00 3.9 4 Este 14 Sudoeste 0 -- -- 81
2021-02-11 08:00:00 1.9 10 Sudoeste 18 Sudoeste 0 -- -- 88
2021-02-11 07:00:00 1.4 5 Sudeste 17 Sudoeste 0 -- -- 89
2021-02-11 06:00:00 1.9 6 Sur 20 Sudoeste 0 -- -- 88
2021-02-11 05:00:00 1.7 14 Sudoeste 19 Sudoeste 0 -- -- 89
2021-02-11 04:00:00 1.5 6 Sur 22 Sur 0 -- -- 87
2021-02-11 03:00:00 -0.2 6 Sudoeste 10 Sur 0 -- -- 93
2021-02-11 02:00:00 0.2 4 Sudeste 8 Sur 0 -- -- 91
2021-02-11 01:00:00 0.7 7 Sur 14 Sur 0 -- -- 88
2021-02-11 00:00:00 1.3 4 Sudoeste 14 Sudoeste 0 -- -- 87
2021-02-10 23:00:00 1.4 7 Sur 14 Sudeste 0 -- -- 87
2021-02-10 22:00:00 3 2 Sudoeste 13 Noroeste 0 -- -- 79
2021-02-10 21:00:00 2.2 4 Noroeste 10 Noroeste 0 -- -- 83
2021-02-10 20:00:00 4.4 7 Noroeste 12 Noroeste 0 -- -- 74
2021-02-10 19:00:00 5.5 9 Noroeste 25 Norte 0 -- -- 69
2021-02-10 18:00:00 8.6 17 Norte 34 Noroeste 0 -- -- 55
2021-02-10 17:00:00 10 23 Norte 44 Noroeste 0 -- -- 49
2021-02-10 16:00:00 9.6 33 Noroeste 53 Noroeste 0 -- -- 52
2021-02-10 15:00:00 9.5 37 Norte 52 Noroeste 0 -- -- 49
2021-02-10 14:00:00 9.2 33 Noroeste 55 Noroeste 0 -- -- 53
2021-02-10 13:00:00 8.6 38 Noroeste 60 Noroeste 0 -- -- 54
2021-02-10 12:00:00 7.7 38 Noroeste 63 Noroeste 0 -- -- 63
2021-02-10 11:00:00 6.8 41 Noroeste 67 Noroeste 0 -- -- 69
2021-02-10 10:00:00 5.3 36 Noroeste 53 Noroeste 0.2 -- -- 73
2021-02-10 09:00:00 4.9 25 Noroeste 52 Noroeste 0 -- -- 76
2021-02-10 08:00:00 4.2 33 Noroeste 68 Noroeste 0.8 -- -- 76
2021-02-10 07:00:00 1.5 54 Noroeste 75 Noroeste 1.2 -- -- 94
2021-02-10 06:00:00 4.6 8 Oeste 25 Oeste 0 -- -- 82
2021-02-10 05:00:00 3.8 7 Sur 17 Oeste 0.2 -- -- 88
2021-02-10 04:00:00 4.5 10 Oeste 24 Oeste 0 -- -- 84
2021-02-10 03:00:00 4.3 12 Oeste 37 Oeste 0 -- -- 83
2021-02-10 02:00:00 5.3 23 Oeste 46 Oeste 0 -- -- 77
2021-02-10 01:00:00 5 17 Oeste 39 Oeste 0 -- -- 80
2021-02-10 00:00:00 4.5 3 Oeste 30 Oeste 0 -- -- 86
2021-02-09 23:00:00 5.5 13 Oeste 37 Noroeste 0 -- -- 79
2021-02-09 22:00:00 6 14 Oeste 33 Oeste 0 -- -- 76
2021-02-09 21:00:00 5.4 12 Oeste 27 Oeste 0 -- -- 80
2021-02-09 20:00:00 5.1 11 Oeste 24 Oeste 0 -- -- 82
2021-02-09 19:00:00 5.2 12 Sudoeste 28 Oeste 0.2 -- -- 81
2021-02-09 18:00:00 5.5 19 Noroeste 53 Noroeste 1.2 -- -- 84
2021-02-09 17:00:00 7.6 18 Oeste 44 Oeste 0.2 -- -- 79
2021-02-09 16:00:00 8 29 Sudoeste 55 Sudoeste 0 -- -- 76
2021-02-09 15:00:00 10.2 27 Sudoeste 60 Oeste 0 -- -- 65
2021-02-09 14:00:00 10.1 21 Sudoeste 50 Sudoeste 0 -- -- 61
2021-02-09 13:00:00 9 24 Sudoeste 42 Sudoeste 0 -- -- 68
2021-02-09 12:00:00 8.8 19 Sudoeste 36 Sudoeste 0 -- -- 66
2021-02-09 11:00:00 7.2 13 Sur 35 Sur 0 -- -- 72
2021-02-09 10:00:00 5.8 17 Sur 27 Sur 0 -- -- 77
2021-02-09 09:00:00 5 4 Sudoeste 10 Sudoeste 0 -- -- 76
2021-02-09 08:00:00 4.1 4 Sur 12 Sudeste 0 -- -- 77
2021-02-09 07:00:00 3.8 4 Sudeste 28 Noroeste 0 -- -- 78
2021-02-09 06:00:00 4.8 14 Oeste 31 Oeste 0 -- -- 71
2021-02-09 05:00:00 5 4 Sudoeste 17 Sur 0 -- -- 74
2021-02-09 04:00:00 5.1 7 Oeste 18 Noroeste 0 -- -- 78
2021-02-09 03:00:00 4.9 5 Sur 10 Oeste 0 -- -- 79
2021-02-09 02:00:00 3.5 6 Sudoeste 16 Sur 0 -- -- 87
2021-02-09 01:00:00 2.3 5 Sudoeste 14 Sudoeste 0 -- -- 91
2021-02-09 00:00:00 2.8 4 Sur 18 Norte 0 -- -- 86
2021-02-08 23:00:00 4.7 13 Noroeste 37 Norte 0 -- -- 79
2021-02-08 22:00:00 4.8 16 Noroeste 27 Noroeste 0 -- -- 80
2021-02-08 21:00:00 4.5 10 Noroeste 23 Oeste 0.2 -- -- 82
2021-02-08 20:00:00 5 12 Noroeste 29 Oeste 0 -- -- 76
2021-02-08 19:00:00 6.2 3 Sudoeste 13 Oeste 0 -- -- 70
2021-02-08 18:00:00 6.5 5 Norte 15 Noroeste 0 -- -- 69
2021-02-08 17:00:00 6.4 13 Noroeste 72 Noroeste 1 -- -- 77
2021-02-08 16:00:00 8.8 29 Noroeste 48 Noroeste 0 -- -- 62
2021-02-08 15:00:00 8.7 17 Noroeste 37 Noroeste 0 -- -- 62
2021-02-08 14:00:00 9.3 14 Oeste 43 Noroeste 0 -- -- 66
2021-02-08 13:00:00 7.6 23 Noroeste 39 Noroeste 0 -- -- 63
2021-02-08 12:00:00 7.4 15 Noroeste 36 Noroeste 0 -- -- 70
2021-02-08 11:00:00 7.2 3 Sur 21 Sudoeste 0 -- -- 76
2021-02-08 10:00:00 5.1 12 Sur 18 Sur 0 -- -- 86
2021-02-08 09:00:00 4.1 8 Sur 19 Sudeste 0 -- -- 86
2021-02-08 08:00:00 3.5 10 Sur 26 Sur 2.4 -- -- 94
2021-02-08 07:00:00 3.4 15 Sur 27 Sur 0 -- -- 92
2021-02-08 06:00:00 3.5 11 Sur 22 Sudoeste 0 -- -- 86
2021-02-08 05:00:00 3.6 12 Sudoeste 27 Oeste 0 -- -- 84
2021-02-08 04:00:00 3.5 7 Sur 35 Oeste 0 -- -- 84
2021-02-08 03:00:00 4.9 19 Oeste 46 Oeste 0 -- -- 75
2021-02-08 02:00:00 5.3 8 Sudoeste 33 Oeste 0 -- -- 72
2021-02-08 01:00:00 5.8 10 Oeste 21 Oeste 0 -- -- 71
2021-02-08 00:00:00 5.1 3 Sur 14 Sudeste 0 -- -- 75
2021-02-07 23:00:00 5.6 5 Sur 18 Sudoeste 0 -- -- 73
2021-02-07 22:00:00 5.5 3 Sudeste 9 Sudoeste 0 -- -- 74
2021-02-07 21:00:00 5.8 6 Nordeste 12 Norte 0 -- -- 70
2021-02-07 20:00:00 5.7 3 Noroeste 12 Noroeste 0 -- -- 67
2021-02-07 19:00:00 5.9 7 Noroeste 23 Noroeste 0 -- -- 62
2021-02-07 18:00:00 6.4 13 Oeste 30 Noroeste 0 -- -- 58
2021-02-07 17:00:00 7.8 19 Noroeste 34 Noroeste 0 -- -- 52
2021-02-07 16:00:00 8.1 19 Norte 33 Noroeste 0 -- -- 49
2021-02-07 15:00:00 7.7 23 Noroeste 39 Noroeste 0 -- -- 50
2021-02-07 14:00:00 7.2 18 Norte 33 Norte 0 -- -- 50
2021-02-07 13:00:00 6.5 22 Norte 37 Norte 0 -- -- 56
2021-02-07 12:00:00 5.2 23 Norte 39 Noroeste 0 -- -- 63
2021-02-07 11:00:00 4.4 23 Norte 35 Norte 0 -- -- 70
2021-02-07 10:00:00 2.9 13 Norte 26 Norte 0 -- -- 82
2021-02-07 09:00:00 2.3 13 Norte 20 Norte 0 -- -- 90
2021-02-07 08:00:00 2 8 Norte 21 Norte 0 -- -- 90
2021-02-07 07:00:00 1.8 7 Nordeste 13 Norte 0 -- -- 96
2021-02-07 06:00:00 2 10 Norte 21 Norte 0 -- -- 94
2021-02-07 05:00:00 2 14 Norte 22 Norte 0 -- -- 94
2021-02-07 04:00:00 2.2 15 Norte 21 Norte 0 -- -- 94
2021-02-07 03:00:00 2.4 11 Norte 23 Norte 0 -- -- 94
2021-02-07 02:00:00 2.9 13 Norte 22 Norte 0 -- -- 91
2021-02-07 01:00:00 3.3 10 Norte 18 Norte 0 -- -- 95
2021-02-07 00:00:00 3.6 9 Norte 22 Norte 0 -- -- 92
2021-02-06 23:00:00 3.9 13 Norte 25 Norte 0 -- -- 93
2021-02-06 22:00:00 3.9 18 Norte 26 Norte 0 -- -- 94
2021-02-06 21:00:00 3.9 15 Norte 28 Norte 0 -- -- 93
2021-02-06 20:00:00 4.8 21 Norte 30 Norte 0 -- -- 90
2021-02-06 19:00:00 6.8 6 Norte 9 Noroeste 0 -- -- 85
2021-02-06 18:00:00 7 4 Este 10 Norte 0 -- -- 86
2021-02-06 17:00:00 7.6 11 Noroeste 22 Oeste 0 -- -- 79
2021-02-06 16:00:00 8.2 14 Noroeste 23 Noroeste 0 -- -- 79
2021-02-06 15:00:00 8.5 6 Oeste 21 Sudoeste 1.2 -- -- 76
2021-02-06 14:00:00 10.3 13 Sudoeste 22 Oeste 0 -- -- 68
2021-02-06 13:00:00 10.4 11 Sudoeste 22 Sudoeste 0 -- -- 65
2021-02-06 12:00:00 8.6 12 Sur 21 Sur 0 -- -- 73
2021-02-06 11:00:00 8.5 5 Sur 14 Sur 0 -- -- 85
2021-02-06 10:00:00 5.1 5 Sur 13 Sur 0 -- -- 97
2021-02-06 09:00:00 4.6 5 Sur 14 Sudoeste 0 -- -- 95
2021-02-06 08:00:00 3.4 8 Sudoeste 12 Sur 0 -- -- 98
2021-02-06 07:00:00 3.2 5 Sur 11 Sur 0 -- -- 97
2021-02-06 06:00:00 4.5 6 Sudoeste 14 Sudoeste 0 -- -- 93
2021-02-06 05:00:00 5 8 Sudoeste 19 Sudeste 0.2 -- -- 96
2021-02-06 04:00:00 5.7 5 Sudeste 22 Sudoeste 3.2 -- -- 97
2021-02-06 03:00:00 5.3 7 Sudoeste 16 Sudoeste 0.2 -- -- 96
2021-02-06 02:00:00 5.7 3 Norte 15 Sudoeste 0 -- -- 94
2021-02-06 01:00:00 6 7 Sudoeste 23 Sur 0 -- -- 92
2021-02-06 00:00:00 6.5 3 Sudeste 24 Sur 0 -- -- 86
2021-02-05 23:00:00 5.2 6 Sudoeste 14 Sur 0 -- -- 93
2021-02-05 22:00:00 5.1 11 Sur 16 Sudoeste 0 -- -- 94
2021-02-05 21:00:00 5.6 10 Sur 19 Sudoeste 0 -- -- 92
2021-02-05 20:00:00 6.5 12 Sudoeste 21 Sur 0 -- -- 87
2021-02-05 19:00:00 7.8 9 Sudoeste 21 Sur 0 -- -- 81
2021-02-05 18:00:00 10.7 12 Sur 25 Sur 0 -- -- 70
2021-02-05 17:00:00 12.2 18 Sur 37 Sur 0 -- -- 62
2021-02-05 16:00:00 13.3 17 Sur 32 Sudoeste 0 -- -- 59
2021-02-05 15:00:00 14.3 19 Sur 38 Sur 0 -- -- 51
2021-02-05 14:00:00 13.7 24 Sur 39 Sur 0 -- -- 56
2021-02-05 13:00:00 13.3 28 Sur 42 Sur 0 -- -- 56
2021-02-05 12:00:00 11.2 23 Sur 37 Sur 0 -- -- 65
2021-02-05 11:00:00 11 15 Sur 26 Sur 0 -- -- 68
2021-02-05 10:00:00 6.8 3 Sur 8 Sudoeste 0 -- -- 80
2021-02-05 09:00:00 2.5 0 Calma 8 Sudeste 0 -- -- 96
2021-02-05 08:00:00 2.1 0 Calma 8 Sur 0 -- -- 97
2021-02-05 07:00:00 2.5 5 Sur 9 Oeste 0 -- -- 95
2021-02-05 06:00:00 3.1 4 Noroeste 8 Norte 0 -- -- 95
2021-02-05 05:00:00 2.9 2 Nordeste 7 Noroeste 0 -- -- 94
2021-02-05 04:00:00 3.7 3 Noroeste 6 Noroeste 0 -- -- 94
2021-02-05 03:00:00 4.5 6 Sudoeste 11 Sur 0 -- -- 89
2021-02-05 02:00:00 3.8 5 Sur 9 Sudeste 0 -- -- 90
2021-02-05 01:00:00 6.7 8 Sudoeste 15 Sudoeste 0 -- -- 84
2021-02-05 00:00:00 7.4 9 Sudoeste 13 Sudoeste 0 -- -- 81
2021-02-04 23:00:00 7.5 10 Sudoeste 14 Sudoeste 0 -- -- 83
2021-02-04 22:00:00 7.7 8 Sudoeste 14 Sudoeste 0 -- -- 81
2021-02-04 21:00:00 8.4 9 Sudoeste 12 Sudoeste 0 -- -- 78
2021-02-04 20:00:00 8.1 9 Sudoeste 19 Sur 0 -- -- 80
2021-02-04 19:00:00 10.7 14 Sur 25 Sur 0 -- -- 66
2021-02-04 18:00:00 12.6 15 Sur 31 Sur 0 -- -- 59
2021-02-04 17:00:00 14.3 22 Sur 38 Sur 0 -- -- 54
2021-02-04 16:00:00 14.9 26 Sur 43 Sur 0 -- -- 50
2021-02-04 15:00:00 15.4 30 Sur 45 Sur 0 -- -- 44
2021-02-04 14:00:00 15.5 26 Sur 44 Sur 0 -- -- 45
2021-02-04 13:00:00 14.4 16 Sur 29 Sur 0 -- -- 54
2021-02-04 12:00:00 13 14 Sur 22 Sur 0 -- -- 61
2021-02-04 11:00:00 9.1 12 Sur 18 Sur 0 -- -- 83
2021-02-04 10:00:00 5.9 4 Sudoeste 12 Sudeste 0 -- -- 93
2021-02-04 09:00:00 4.4 6 Sur 10 Sur 0 -- -- 95
2021-02-04 08:00:00 5.4 5 Sur 11 Sur 0 -- -- 90
2021-02-04 07:00:00 4.5 5 Sudoeste 9 Sudoeste 0 -- -- 95
2021-02-04 06:00:00 3.8 2 Sur 6 Sur 0 -- -- 95
2021-02-04 05:00:00 4.1 3 Este 6 Oeste 0 -- -- 95
2021-02-04 04:00:00 5 4 Sudoeste 9 Sur 0 -- -- 91
2021-02-04 03:00:00 5.4 5 Sur 10 Sudoeste 0 -- -- 90
2021-02-04 02:00:00 5.6 6 Sudoeste 12 Sur 0 -- -- 88
2021-02-04 01:00:00 6.1 8 Sur 12 Sur 0 -- -- 87
2021-02-04 00:00:00 6.3 4 Sur 9 Sur 0 -- -- 85
2021-02-03 23:00:00 6.3 4 Sur 10 Sur 0 -- -- 86
2021-02-03 22:00:00 7.5 5 Sur 10 Sudeste 0 -- -- 80
2021-02-03 21:00:00 8.3 5 Oeste 10 Sudoeste 0 -- -- 77
2021-02-03 20:00:00 9.6 9 Sudoeste 15 Sudoeste 0 -- -- 71
2021-02-03 19:00:00 10.2 7 Oeste 15 Noroeste 0 -- -- 69
2021-02-03 18:00:00 12.5 10 Noroeste 24 Noroeste 0 -- -- 62
2021-02-03 17:00:00 15.3 14 Norte 20 Noroeste 0 -- -- 52
2021-02-03 16:00:00 17.5 6 Norte 15 Noroeste 0 -- -- 49
2021-02-03 15:00:00 16.8 3 Nordeste 9 Este 0 -- -- 50
2021-02-03 14:00:00 15.4 5 Este 13 Sudoeste 0 -- -- 55
2021-02-03 13:00:00 13.1 9 Sur 22 Sur 0 -- -- 61
2021-02-03 12:00:00 10.3 17 Sur 24 Sudoeste 0 -- -- 72
2021-02-03 11:00:00 7.7 10 Sur 18 Sur 0 -- -- 79
2021-02-03 10:00:00 4.4 8 Sudoeste 14 Sudoeste 0 -- -- 89
2021-02-03 09:00:00 1.2 6 Sudoeste 10 Sudoeste 0 -- -- 95
2021-02-03 08:00:00 0.9 3 Sur 10 Sudoeste 0 -- -- 92
2021-02-03 07:00:00 1.5 4 Sudeste 12 Sudoeste 0 -- -- 96
2021-02-03 06:00:00 0.4 2 Sur 8 Sur 0 -- -- 94
2021-02-03 05:00:00 3 5 Sur 16 Sudoeste 0 -- -- 90
2021-02-03 04:00:00 2.8 5 Sudoeste 13 Sur 0 -- -- 94
2021-02-03 03:00:00 3.4 4 Sur 10 Sur 0 -- -- 92
2021-02-03 02:00:00 3.9 5 Sur 21 Sudoeste 0 -- -- 90
2021-02-03 01:00:00 4.6 16 Sudoeste 22 Sudoeste 0 -- -- 87
2021-02-03 00:00:00 4.9 8 Sudoeste 19 Sudoeste 0 -- -- 86
2021-02-02 23:00:00 5.5 10 Sudoeste 16 Sudoeste 0 -- -- 81
2021-02-02 22:00:00 4.5 3 Sudoeste 6 Sur 0 -- -- 85
2021-02-02 21:00:00 6.7 5 Sur 12 Sur 0 -- -- 78
2021-02-02 20:00:00 8.1 4 Sudoeste 15 Noroeste 0 -- -- 71
2021-02-02 19:00:00 10.4 15 Norte 21 Norte 0 -- -- 73
2021-02-02 18:00:00 13.6 4 Noroeste 6 Nordeste 0 -- -- 59
2021-02-02 17:00:00 17.3 0 Calma 8 Este 0 -- -- 48
2021-02-02 16:00:00 17 2 Sur 11 Sur 0 -- -- 49
2021-02-02 15:00:00 16.5 2 Noroeste 10 Este 0 -- -- 52
2021-02-02 14:00:00 14.9 5 Nordeste 13 Este 0 -- -- 57
2021-02-02 13:00:00 13.8 3 Sur 8 Este 0 -- -- 63
2021-02-02 12:00:00 11.2 4 Sudeste 10 Este 0 -- -- 71
2021-02-02 11:00:00 9.8 3 Sur 6 Sur 0 -- -- 73
2021-02-02 10:00:00 6.1 0 Calma 12 Sudoeste 0 -- -- 86
2021-02-02 09:00:00 4.5 9 Sudoeste 14 Sudoeste 0 -- -- 90
2021-02-02 08:00:00 4.4 6 Sur 16 Sudoeste 0 -- -- 90
2021-02-02 07:00:00 3.4 12 Sudoeste 18 Sudoeste 0 -- -- 94
2021-02-02 06:00:00 2.2 0 Calma 14 Norte 0 -- -- 94
2021-02-02 05:00:00 3.8 5 Noroeste 10 Noroeste 0 -- -- 93
2021-02-02 04:00:00 4.2 5 Norte 9 Noroeste 0 -- -- 88
2021-02-02 03:00:00 3.5 6 Oeste 9 Oeste 0 -- -- 91
2021-02-02 02:00:00 3.7 4 Sudeste 11 Oeste 0 -- -- 91
2021-02-02 01:00:00 4.9 4 Oeste 10 Sudoeste 0 -- -- 88
2021-02-02 00:00:00 5.6 5 Norte 16 Nordeste 0 -- -- 87
2021-02-01 23:00:00 5.4 4 Este 14 Norte 0 -- -- 84
2021-02-01 22:00:00 6.2 5 Nordeste 21 Norte 0 -- -- 82
2021-02-01 21:00:00 6.6 7 Norte 15 Norte 0 -- -- 81
2021-02-01 20:00:00 8 9 Nordeste 14 Nordeste 0 -- -- 77
2021-02-01 19:00:00 9.6 6 Norte 39 Norte 0 -- -- 69
2021-02-01 18:00:00 12.5 28 Noroeste 50 Noroeste 0 -- -- 56
2021-02-01 17:00:00 13.5 25 Noroeste 50 Noroeste 0 -- -- 58
2021-02-01 16:00:00 13.7 36 Noroeste 55 Noroeste 0 -- -- 56
2021-02-01 15:00:00 13.5 41 Noroeste 63 Noroeste 0 -- -- 56
2021-02-01 14:00:00 13.5 41 Noroeste 59 Noroeste 0 -- -- 54
2021-02-01 13:00:00 12.6 40 Noroeste 63 Noroeste 0 -- -- 54
2021-02-01 12:00:00 11.9 36 Noroeste 62 Noroeste 0 -- -- 55
2021-02-01 11:00:00 11.2 26 Norte 45 Norte 0 -- -- 54
2021-02-01 10:00:00 8.9 21 Norte 45 Norte 0 -- -- 63
2021-02-01 09:00:00 6.8 16 Norte 30 Norte 0 -- -- 70
2021-02-01 08:00:00 6.3 7 Nordeste 17 Nordeste 0 -- -- 75
2021-02-01 07:00:00 6.6 9 Nordeste 40 Norte 0 -- -- 72
2021-02-01 06:00:00 7.5 23 Noroeste 37 Noroeste 0 -- -- 68
2021-02-01 05:00:00 8.1 26 Noroeste 43 Noroeste 0 -- -- 64
2021-02-01 04:00:00 8.6 28 Noroeste 45 Noroeste 0 -- -- 65
2021-02-01 03:00:00 9 28 Norte 48 Noroeste 0 -- -- 65
2021-02-01 02:00:00 9.4 33 Noroeste 70 Noroeste 0 -- -- 66
2021-02-01 01:00:00 9.7 36 Noroeste 62 Oeste 0 -- -- 67
2021-02-01 00:00:00 10.3 38 Noroeste 67 Noroeste 0 -- -- 64
2021-01-31 23:00:00 10.8 44 Noroeste 64 Noroeste 0 -- -- 60
2021-01-31 22:00:00 10.1 6 Noroeste 27 Noroeste 0 -- -- 68
2021-01-31 21:00:00 10.2 5 Sur 11 Sur 0 -- -- 69
2021-01-31 20:00:00 10.8 11 Norte 30 Norte 0 -- -- 66
2021-01-31 19:00:00 10.4 12 Noroeste 48 Noroeste 0 -- -- 70
2021-01-31 18:00:00 10.6 24 Noroeste 53 Noroeste 0 -- -- 73
2021-01-31 17:00:00 11.2 35 Noroeste 54 Noroeste 0 -- -- 69
2021-01-31 16:00:00 12.8 36 Noroeste 64 Noroeste 0 -- -- 63
2021-01-31 15:00:00 12.9 38 Noroeste 62 Noroeste 0 -- -- 61
2021-01-31 14:00:00 12.5 36 Norte 55 Noroeste 0 -- -- 62
2021-01-31 13:00:00 11.6 31 Norte 47 Norte 0 -- -- 62
2021-01-31 12:00:00 9.3 22 Norte 45 Noroeste 0 -- -- 64
2021-01-31 11:00:00 8.6 30 Norte 50 Noroeste 0 -- -- 64
2021-01-31 10:00:00 7.4 23 Norte 35 Norte 0 -- -- 66
2021-01-31 09:00:00 5.3 21 Norte 41 Norte 0 -- -- 72
2021-01-31 08:00:00 5.3 27 Norte 41 Norte 0 -- -- 73
2021-01-31 07:00:00 5.7 23 Norte 38 Norte 0 -- -- 72
2021-01-31 06:00:00 5.7 27 Norte 44 Noroeste 0 -- -- 71
2021-01-31 05:00:00 5.6 29 Noroeste 46 Noroeste 0 -- -- 73
2021-01-31 04:00:00 5.8 32 Noroeste 55 Noroeste 0 -- -- 70
2021-01-31 03:00:00 5.8 27 Norte 45 Norte 0 -- -- 71
2021-01-31 02:00:00 5.6 28 Noroeste 43 Noroeste 0 -- -- 71
2021-01-31 01:00:00 5.4 28 Noroeste 47 Noroeste 0 -- -- 73
2021-01-31 00:00:00 5.1 34 Noroeste 47 Noroeste 0 -- -- 76